createdAt,value
2022-10-19T00:00:13.501Z,99395.63
2022-10-19T00:01:16.519Z,99391.41
2022-10-19T00:02:17.956Z,99392.00
2022-10-19T00:03:22.356Z,99397.34
2022-10-19T00:04:24.797Z,99400.59
2022-10-19T00:05:26.153Z,99401.69
2022-10-19T00:06:28.629Z,99405.72
2022-10-19T00:07:29.983Z,99406.63
2022-10-19T00:08:31.307Z,99407.72
2022-10-19T00:09:32.641Z,99402.19
2022-10-19T00:10:34.099Z,99407.03
2022-10-19T00:11:36.646Z,99404.94
2022-10-19T00:12:38.079Z,99402.56
2022-10-19T00:13:39.482Z,99405.25
2022-10-19T00:14:40.797Z,99408.69
2022-10-19T00:15:42.146Z,99406.34
2022-10-19T00:16:44.530Z,99403.66
2022-10-19T00:17:45.951Z,99404.75
2022-10-19T00:18:47.279Z,99396.25
2022-10-19T00:19:48.594Z,99399.22
2022-10-19T00:20:49.921Z,99398.44
2022-10-19T00:21:51.831Z,99400.00
2022-10-19T00:22:53.182Z,99403.47
2022-10-19T00:23:54.641Z,99403.47
2022-10-19T00:24:56.712Z,99401.59
2022-10-19T00:25:58.262Z,99402.38
2022-10-19T00:26:59.639Z,99400.50
2022-10-19T00:28:01.480Z,99400.50
2022-10-19T00:29:03.694Z,99404.75
2022-10-19T00:30:05.422Z,99399.91
2022-10-19T00:31:08.618Z,99397.25
2022-10-19T00:32:10.001Z,99393.50
2022-10-19T00:33:11.309Z,99395.06
2022-10-19T00:34:12.609Z,99398.25
2022-10-19T00:35:14.010Z,99392.31
2022-10-19T00:36:25.813Z,99393.91
2022-10-19T00:37:27.403Z,99397.84
2022-10-19T00:38:28.750Z,99400.41
2022-10-19T00:39:30.046Z,99393.69
2022-10-19T00:40:36.925Z,99402.69
2022-10-19T00:41:38.670Z,99392.50
2022-10-19T00:42:40.038Z,99398.28
2022-10-19T00:43:56.403Z,99395.03
2022-10-19T00:44:59.455Z,99390.38
2022-10-19T00:46:00.816Z,99391.38
2022-10-19T00:47:07.626Z,99390.78
2022-10-19T00:48:10.343Z,99397.06
2022-10-19T00:49:21.990Z,99394.38
2022-10-19T00:50:23.826Z,99386.59
2022-10-19T00:51:27.013Z,99390.03
2022-10-19T00:52:28.772Z,99393.78
2022-10-19T00:53:30.613Z,99393.19
2022-10-19T00:54:32.879Z,99404.34
2022-10-19T00:55:34.515Z,99398.88
2022-10-19T00:56:37.975Z,99398.09
2022-10-19T00:57:39.535Z,99401.09
2022-10-19T00:58:42.678Z,99402.97
2022-10-19T00:59:45.534Z,99399.78
2022-10-19T01:00:46.929Z,99399.78
2022-10-19T01:01:49.205Z,99398.22
2022-10-19T01:02:50.518Z,99404.34
2022-10-19T01:03:52.092Z,99403.25
2022-10-19T01:04:53.736Z,99402.47
2022-10-19T01:05:55.579Z,99399.50
2022-10-19T01:06:57.342Z,99397.63
2022-10-19T01:07:58.670Z,99406.09
2022-10-19T01:08:59.982Z,99397.31
2022-10-19T01:10:01.950Z,99405.50
2022-10-19T01:11:23.800Z,99400.66
2022-10-19T01:12:35.315Z,99400.66
2022-10-19T01:13:42.533Z,99396.72
2022-10-19T01:14:46.841Z,99398.59
2022-10-19T01:16:01.914Z,99402.84
2022-10-19T01:17:23.157Z,99393.28
2022-10-19T01:18:39.569Z,99398.59
2022-10-19T01:19:59.290Z,99390.59
2022-10-19T01:21:00.629Z,99393.28
2022-10-19T01:22:04.727Z,99390.00
2022-10-19T01:23:06.018Z,99384.19
2022-10-19T01:24:13.384Z,99383.56
2022-10-19T01:25:22.759Z,99386.84
2022-10-19T01:26:42.888Z,99392.97
2022-10-19T01:27:53.194Z,99383.09
2022-10-19T01:28:57.671Z,99380.09
2022-10-19T01:30:06.034Z,99380.88
2022-10-19T01:31:07.302Z,99379.00
2022-10-19T01:32:16.071Z,99382.50
2022-10-19T01:33:17.347Z,99374.50
2022-10-19T01:34:21.663Z,99382.19
2022-10-19T01:35:29.159Z,99377.31
2022-10-19T01:36:43.065Z,99381.06
2022-10-19T01:37:48.990Z,99381.25
2022-10-19T01:39:02.550Z,99378.59
2022-10-19T01:40:03.910Z,99383.81
2022-10-19T01:41:14.715Z,99374.13
2022-10-19T01:42:30.944Z,99378.34
2022-10-19T01:43:37.876Z,99372.41
2022-10-19T01:44:58.026Z,99373.03
2022-10-19T01:46:19.613Z,99376.28
2022-10-19T01:47:26.709Z,99372.50
2022-10-19T01:48:33.908Z,99358.09
2022-10-19T01:49:41.304Z,99366.13
2022-10-19T01:51:01.415Z,99359.19
2022-10-19T01:52:04.990Z,99366.13
2022-10-19T01:53:08.811Z,99352.47
2022-10-19T01:54:12.390Z,99353.56
2022-10-19T01:55:15.168Z,99358.91
2022-10-19T01:56:18.237Z,99362.03
2022-10-19T01:57:22.365Z,99351.38
2022-10-19T01:58:27.092Z,99352.16
2022-10-19T01:59:28.955Z,99363.00
2022-10-19T02:00:31.401Z,99351.56
2022-10-19T02:01:34.437Z,99353.91
2022-10-19T02:02:37.586Z,99345.13
2022-10-19T02:03:40.088Z,99349.34
2022-10-19T02:04:42.143Z,99342.63
2022-10-19T02:05:44.533Z,99345.31
2022-10-19T02:06:46.090Z,99345.63
2022-10-19T02:07:49.529Z,99348.28
2022-10-19T02:08:52.017Z,99345.31
2022-10-19T02:09:53.406Z,99348.44
2022-10-19T02:10:56.361Z,99351.09
2022-10-19T02:12:00.511Z,99351.09
2022-10-19T02:13:02.918Z,99347.66
2022-10-19T02:14:07.078Z,99350.31
2022-10-19T02:15:14.424Z,99353.00
2022-10-19T02:16:22.073Z,99341.22
2022-10-19T02:17:26.606Z,99343.09
2022-10-19T02:18:36.396Z,99340.16
2022-10-19T02:19:37.766Z,99348.94
2022-10-19T02:20:39.076Z,99347.06
2022-10-19T02:21:40.616Z,99346.75
2022-10-19T02:22:42.343Z,99345.94
2022-10-19T02:23:44.518Z,99340.63
2022-10-19T02:24:45.840Z,99341.09
2022-10-19T02:25:47.301Z,99344.56
2022-10-19T02:26:48.819Z,99330.59
2022-10-19T02:27:50.173Z,99337.81
2022-10-19T02:28:54.005Z,99332.47
2022-10-19T02:29:55.923Z,99328.25
2022-10-19T02:30:58.134Z,99327.63
2022-10-19T02:32:00.278Z,99325.75
2022-10-19T02:33:01.639Z,99318.81
2022-10-19T02:34:02.972Z,99327.63
2022-10-19T02:35:04.751Z,99323.56
2022-10-19T02:36:06.314Z,99325.13
2022-10-19T02:37:07.773Z,99324.53
2022-10-19T02:38:11.248Z,99324.53
2022-10-19T02:39:12.581Z,99322.63
2022-10-19T02:40:14.182Z,99319.66
2022-10-19T02:41:17.845Z,99323.09
2022-10-19T02:42:26.715Z,99323.41
2022-10-19T02:43:28.819Z,99318.88
2022-10-19T02:44:34.684Z,99316.97
2022-10-19T02:45:38.799Z,99317.47
2022-10-19T02:46:48.989Z,99314.81
2022-10-19T02:48:08.623Z,99314.81
2022-10-19T02:49:10.690Z,99313.88
2022-10-19T02:50:12.208Z,99309.34
2022-10-19T02:51:29.785Z,99318.59
2022-10-19T02:52:31.145Z,99315.31
2022-10-19T02:53:32.456Z,99309.47
2022-10-19T02:54:34.089Z,99311.06
2022-10-19T02:55:35.462Z,99304.63
2022-10-19T02:56:36.805Z,99306.06
2022-10-19T02:57:38.123Z,99307.94
2022-10-19T02:58:39.430Z,99302.94
2022-10-19T02:59:40.812Z,99308.56
2022-10-19T03:00:42.249Z,99310.44
2022-10-19T03:01:43.626Z,99302.28
2022-10-19T03:02:44.987Z,99305.75
2022-10-19T03:03:46.868Z,99305.25
2022-10-19T03:05:55.156Z,99301.00
2022-10-19T03:06:56.504Z,99296.78
2022-10-19T03:07:57.990Z,99297.09
2022-10-19T03:08:59.318Z,99296.00
2022-10-19T03:10:00.647Z,99296.00
2022-10-19T03:11:01.973Z,99295.22
2022-10-19T03:12:03.425Z,99296.00
2022-10-19T03:13:04.841Z,99302.28
2022-10-19T03:14:06.170Z,99298.34
2022-10-19T03:15:07.808Z,99297.56
2022-10-19T03:16:10.035Z,99304.59
2022-10-19T03:17:11.389Z,99298.78
2022-10-19T03:18:12.711Z,99306.03
2022-10-19T03:19:14.109Z,99312.44
2022-10-19T03:20:15.456Z,99314.63
2022-10-19T03:21:17.523Z,99311.19
2022-10-19T03:22:18.923Z,99311.34
2022-10-19T03:23:20.252Z,99310.84
2022-10-19T03:24:21.730Z,99313.84
2022-10-19T03:25:23.128Z,99308.81
2022-10-19T03:26:26.150Z,99305.53
2022-10-19T03:27:27.525Z,99307.09
2022-10-19T03:28:28.906Z,99303.78
2022-10-19T03:29:30.245Z,99304.56
2022-10-19T03:30:31.552Z,99304.88
2022-10-19T03:31:32.909Z,99301.75
2022-10-19T03:32:34.213Z,99303.91
2022-10-19T03:33:35.568Z,99292.47
2022-10-19T03:34:36.908Z,99295.13
2022-10-19T03:35:38.235Z,99298.91
2022-10-19T03:36:40.213Z,99297.63
2022-10-19T03:37:41.881Z,99295.56
2022-10-19T03:38:43.280Z,99294.28
2022-10-19T03:39:44.582Z,99291.94
2022-10-19T03:40:45.918Z,99286.94
2022-10-19T03:41:47.250Z,99296.19
2022-10-19T03:42:48.593Z,99294.63
2022-10-19T03:43:50.142Z,99294.63
2022-10-19T03:44:51.541Z,99292.41
2022-10-19T03:45:52.909Z,99290.06
2022-10-19T03:46:54.212Z,99289.94
2022-10-19T03:47:55.542Z,99286.78
2022-10-19T03:48:56.878Z,99287.84
2022-10-19T03:49:58.230Z,99290.53
2022-10-19T03:51:00.144Z,99288.97
2022-10-19T03:52:01.447Z,99283.44
2022-10-19T03:54:12.430Z,99282.19
2022-10-19T03:55:13.834Z,99283.75
2022-10-19T03:56:16.845Z,99284.53
2022-10-19T03:57:18.248Z,99289.28
2022-10-19T03:58:19.621Z,99285.31
2022-10-19T03:59:20.973Z,99289.88
2022-10-19T04:00:22.345Z,99295.22
2022-10-19T04:01:25.455Z,99292.72
2022-10-19T04:02:26.845Z,99289.59
2022-10-19T04:03:28.289Z,99293.34
2022-10-19T04:04:29.649Z,99288.78
2022-10-19T04:05:30.992Z,99289.59
2022-10-19T04:06:34.311Z,99293.34
2022-10-19T04:07:35.942Z,99287.84
2022-10-19T04:08:37.472Z,99297.28
2022-10-19T04:09:39.086Z,99290.84
2022-10-19T04:10:40.461Z,99292.72
2022-10-19T04:11:42.111Z,99285.81
2022-10-19T04:12:43.482Z,99291.94
2022-10-19T04:13:44.808Z,99293.03
2022-10-19T04:14:56.907Z,99295.22
2022-10-19T04:15:59.404Z,99292.88
2022-10-19T04:17:04.107Z,99301.34
2022-10-19T04:18:05.462Z,99293.19
2022-10-19T04:19:06.901Z,99294.66
2022-10-19T04:20:08.621Z,99300.13
2022-10-19T04:21:19.102Z,99297.16
2022-10-19T04:22:20.462Z,99300.13
2022-10-19T04:23:21.842Z,99296.97
2022-10-19T04:24:23.337Z,99295.88
2022-10-19T04:25:24.671Z,99300.25
2022-10-19T04:26:26.138Z,99301.97
2022-10-19T04:27:27.602Z,99299.59
2022-10-19T04:28:29.436Z,99299.91
2022-10-19T04:29:31.178Z,99301.31
2022-10-19T04:30:32.793Z,99298.94
2022-10-19T04:31:34.167Z,99298.31
2022-10-19T04:32:35.491Z,99295.34
2022-10-19T04:33:36.843Z,99302.56
2022-10-19T04:34:39.991Z,99301.59
2022-10-19T04:35:41.612Z,99305.38
2022-10-19T04:36:42.959Z,99305.69
2022-10-19T04:37:44.253Z,99299.84
2022-10-19T04:38:45.656Z,99298.47
2022-10-19T04:39:47.126Z,99302.22
2022-10-19T04:40:48.466Z,99297.50
2022-10-19T04:41:49.833Z,99306.28
2022-10-19T04:42:51.258Z,99304.41
2022-10-19T04:44:00.150Z,99300.94
2022-10-19T04:45:01.719Z,99307.56
2022-10-19T04:46:04.137Z,99305.97
2022-10-19T04:47:05.495Z,99300.63
2022-10-19T04:48:06.816Z,99296.91
2022-10-19T04:49:08.120Z,99294.50
2022-10-19T04:50:09.590Z,99308.94
2022-10-19T04:51:11.295Z,99297.50
2022-10-19T04:52:12.651Z,99298.28
2022-10-19T04:53:14.341Z,99302.50
2022-10-19T04:54:15.810Z,99302.22
2022-10-19T04:55:17.161Z,99297.03
2022-10-19T04:56:20.556Z,99303.94
2022-10-19T04:57:21.916Z,99301.56
2022-10-19T04:58:23.664Z,99298.91
2022-10-19T04:59:25.054Z,99302.81
2022-10-19T05:00:26.406Z,99298.91
2022-10-19T05:01:28.755Z,99301.06
2022-10-19T05:02:30.105Z,99297.63
2022-10-19T05:03:31.437Z,99293.84
2022-10-19T05:04:32.774Z,99295.94
2022-10-19T05:05:34.164Z,99303.44
2022-10-19T05:06:35.480Z,99292.28
2022-10-19T05:07:36.994Z,99295.75
2022-10-19T05:08:38.586Z,99301.66
2022-10-19T05:09:39.951Z,99303.28
2022-10-19T05:10:44.223Z,99300.72
2022-10-19T05:11:51.226Z,99301.53
2022-10-19T05:12:52.646Z,99294.78
2022-10-19T05:13:53.994Z,99295.09
2022-10-19T05:14:55.374Z,99297.56
2022-10-19T05:16:00.534Z,99303.53
2022-10-19T05:17:01.870Z,99294.31
2022-10-19T05:18:03.234Z,99299.44
2022-10-19T05:19:04.548Z,99294.72
2022-10-19T05:20:06.194Z,99298.59
2022-10-19T05:21:09.251Z,99293.41
2022-10-19T05:22:10.617Z,99298.84
2022-10-19T05:23:11.957Z,99294.31
2022-10-19T05:24:13.268Z,99294.63
2022-10-19T05:25:14.659Z,99301.31
2022-10-19T05:26:17.190Z,99288.00
2022-10-19T05:27:18.501Z,99300.66
2022-10-19T05:28:19.879Z,99302.53
2022-10-19T05:29:21.261Z,99297.72
2022-10-19T05:30:22.640Z,99299.75
2022-10-19T05:31:27.068Z,99292.38
2022-10-19T05:32:28.605Z,99306.63
2022-10-19T05:33:29.930Z,99298.91
2022-10-19T05:34:31.238Z,99298.13
2022-10-19T05:35:32.598Z,99295.47
2022-10-19T05:36:35.070Z,99301.56
2022-10-19T05:37:36.766Z,99295.47
2022-10-19T05:38:38.344Z,99303.16
2022-10-19T05:39:39.755Z,99301.28
2022-10-19T05:40:44.778Z,99300.25
2022-10-19T05:41:46.909Z,99297.94
2022-10-19T05:42:48.264Z,99298.19
2022-10-19T05:43:53.316Z,99300.66
2022-10-19T05:44:54.666Z,99302.84
2022-10-19T05:45:56.025Z,99293.16
2022-10-19T05:46:57.393Z,99292.06
2022-10-19T05:47:58.770Z,99290.00
2022-10-19T05:49:00.142Z,99281.59
2022-10-19T05:50:01.447Z,99289.59
2022-10-19T05:51:03.959Z,99283.97
2022-10-19T05:52:05.309Z,99295.72
2022-10-19T05:53:06.716Z,99292.75
2022-10-19T05:54:08.452Z,99292.53
2022-10-19T05:55:09.834Z,99290.38
2022-10-19T05:56:15.841Z,99294.16
2022-10-19T05:57:17.161Z,99294.44
2022-10-19T05:58:18.492Z,99299.75
2022-10-19T05:59:20.468Z,99296.19
2022-10-19T06:00:21.826Z,99300.25
2022-10-19T06:01:23.154Z,99297.22
2022-10-19T06:02:24.533Z,99295.34
2022-10-19T06:03:26.180Z,99305.22
2022-10-19T06:04:27.504Z,99298.97
2022-10-19T06:05:28.857Z,99306.19
2022-10-19T06:06:30.628Z,99309.16
2022-10-19T06:07:32.311Z,99300.53
2022-10-19T06:08:34.382Z,99309.63
2022-10-19T06:09:35.751Z,99302.75
2022-10-19T06:10:37.055Z,99304.63
2022-10-19T06:11:39.491Z,99312.63
2022-10-19T06:12:40.805Z,99310.41
2022-10-19T06:13:42.644Z,99316.25
2022-10-19T06:14:44.002Z,99309.81
2022-10-19T06:15:49.705Z,99307.63
2022-10-19T06:16:51.031Z,99313.47
2022-10-19T06:17:52.316Z,99312.06
2022-10-19T06:18:54.144Z,99313.63
2022-10-19T06:19:55.476Z,99304.56
2022-10-19T06:21:01.053Z,99305.34
2022-10-19T06:22:02.346Z,99296.84
2022-10-19T06:23:03.776Z,99300.63
2022-10-19T06:24:05.420Z,99304.25
2022-10-19T06:25:06.975Z,99299.03
2022-10-19T06:26:10.092Z,99306.06
2022-10-19T06:27:11.448Z,99298.84
2022-10-19T06:28:12.832Z,99307.63
2022-10-19T06:29:14.170Z,99302.81
2022-10-19T06:30:15.604Z,99308.41
2022-10-19T06:31:17.272Z,99311.41
2022-10-19T06:32:18.608Z,99315.47
2022-10-19T06:33:19.973Z,99307.47
2022-10-19T06:34:21.414Z,99316.25
2022-10-19T06:35:22.792Z,99311.22
2022-10-19T06:36:25.501Z,99309.16
2022-10-19T06:37:26.841Z,99309.44
2022-10-19T06:38:28.222Z,99302.25
2022-10-19T06:39:29.526Z,99306.31
2022-10-19T06:40:30.974Z,99302.06
2022-10-19T06:41:32.568Z,99307.56
2022-10-19T06:42:50.749Z,99312.91
2022-10-19T06:43:53.037Z,99301.75
2022-10-19T06:44:54.383Z,99305.03
2022-10-19T06:45:55.756Z,99302.84
2022-10-19T06:46:57.129Z,99294.09
2022-10-19T06:48:02.222Z,99303.44
2022-10-19T06:49:06.362Z,99305.34
2022-10-19T06:50:08.102Z,99307.22
2022-10-19T06:51:09.437Z,99307.69
2022-10-19T06:52:11.068Z,99304.75
2022-10-19T06:53:12.581Z,99310.06
2022-10-19T06:54:13.962Z,99307.41
2022-10-19T06:55:15.317Z,99309.75
2022-10-19T06:56:16.650Z,99313.53
2022-10-19T06:57:18.016Z,99311.03
2022-10-19T06:58:19.540Z,99315.28
2022-10-19T06:59:20.880Z,99312.63
2022-10-19T07:00:22.551Z,99313.09
2022-10-19T07:01:24.457Z,99310.41
2022-10-19T07:02:25.921Z,99308.25
2022-10-19T07:03:27.895Z,99306.06
2022-10-19T07:04:29.280Z,99307.34
2022-10-19T07:05:30.591Z,99306.41
2022-10-19T07:06:32.037Z,99301.47
2022-10-19T07:07:33.638Z,99308.97
2022-10-19T07:08:36.217Z,99305.38
2022-10-19T07:09:37.554Z,99302.63
2022-10-19T07:10:38.910Z,99306.06
2022-10-19T07:11:45.502Z,99312.19
2022-10-19T07:12:47.346Z,99302.63
2022-10-19T07:13:48.713Z,99307.13
2022-10-19T07:14:50.020Z,99307.44
2022-10-19T07:15:56.506Z,99304.78
2022-10-19T07:16:57.889Z,99311.88
2022-10-19T07:17:59.274Z,99311.44
2022-10-19T07:19:00.648Z,99313.03
2022-10-19T07:20:02.128Z,99306.47
2022-10-19T07:21:04.828Z,99304.25
2022-10-19T07:22:06.236Z,99311.97
2022-10-19T07:23:08.013Z,99312.31
2022-10-19T07:24:09.551Z,99310.31
2022-10-19T07:25:10.904Z,99318.94
2022-10-19T07:26:16.942Z,99325.84
2022-10-19T07:27:18.407Z,99325.84
2022-10-19T07:28:20.769Z,99329.09
2022-10-19T07:29:22.254Z,99327.53
2022-10-19T07:30:23.937Z,99334.13
2022-10-19T07:31:25.734Z,99337.28
2022-10-19T07:32:28.801Z,99328.50
2022-10-19T07:33:30.156Z,99327.59
2022-10-19T07:34:31.508Z,99331.03
2022-10-19T07:35:32.895Z,99328.06
2022-10-19T07:36:35.025Z,99329.47
2022-10-19T07:37:36.607Z,99323.00
2022-10-19T07:38:38.086Z,99326.75
2022-10-19T07:39:39.408Z,99319.41
2022-10-19T07:40:44.764Z,99328.84
2022-10-19T07:41:48.745Z,99321.63
2022-10-19T07:42:50.078Z,99322.25
2022-10-19T07:43:51.982Z,99318.81
2022-10-19T07:44:53.297Z,99326.81
2022-10-19T07:45:58.274Z,99326.19
2022-10-19T07:46:59.622Z,99327.00
2022-10-19T07:48:00.989Z,99321.06
2022-10-19T07:49:03.041Z,99329.22
2022-10-19T07:50:04.552Z,99326.69
2022-10-19T07:51:07.637Z,99325.47
2022-10-19T07:52:08.955Z,99322.31
2022-10-19T07:53:10.278Z,99324.69
2022-10-19T07:54:11.665Z,99325.00
2022-10-19T07:55:13.086Z,99321.53
2022-10-19T07:56:18.559Z,99332.22
2022-10-19T07:57:19.966Z,99327.19
2022-10-19T07:58:21.400Z,99333.13
2022-10-19T07:59:22.744Z,99333.44
2022-10-19T08:00:24.167Z,99321.81
2022-10-19T08:01:27.577Z,99322.59
2022-10-19T08:02:39.414Z,99329.34
2022-10-19T08:05:13.684Z,99325.44
2022-10-19T08:06:16.443Z,99324.53
2022-10-19T08:07:17.756Z,99321.75
2022-10-19T08:08:19.097Z,99330.53
2022-10-19T08:09:47.164Z,99325.53
2022-10-19T08:10:41.764Z,99327.47
2022-10-19T08:11:43.129Z,99332.06
2022-10-19T08:12:44.447Z,99321.84
2022-10-19T08:13:46.125Z,99325.31
2022-10-19T08:14:47.448Z,99322.19
2022-10-19T08:15:49.074Z,99324.72
2022-10-19T08:16:50.406Z,99328.66
2022-10-19T08:17:51.742Z,99324.25
2022-10-19T08:18:55.730Z,99321.91
2022-10-19T08:19:57.097Z,99326.31
2022-10-19T08:21:01.782Z,99330.53
2022-10-19T08:22:03.110Z,99327.22
2022-10-19T08:23:04.452Z,99325.16
2022-10-19T08:24:06.782Z,99330.03
2022-10-19T08:25:08.288Z,99324.53
2022-10-19T08:26:09.616Z,99323.25
2022-10-19T08:27:10.958Z,99324.22
2022-10-19T08:28:12.250Z,99327.34
2022-10-19T08:29:14.997Z,99320.91
2022-10-19T08:30:16.342Z,99322.19
2022-10-19T08:31:19.125Z,99320.94
2022-10-19T08:32:20.596Z,99317.66
2022-10-19T08:33:21.929Z,99320.16
2022-10-19T08:34:23.254Z,99324.25
2022-10-19T08:35:24.632Z,99320.00
2022-10-19T08:36:26.011Z,99322.53
2022-10-19T08:37:40.809Z,99328.22
2022-10-19T08:38:46.273Z,99320.66
2022-10-19T08:39:47.634Z,99317.69
2022-10-19T08:40:48.974Z,99325.22
2022-10-19T08:41:58.245Z,99320.53
2022-10-19T08:43:08.626Z,99325.88
2022-10-19T08:44:28.510Z,99318.47
2022-10-19T08:45:55.396Z,99320.69
2022-10-19T08:47:02.380Z,99326.66
2022-10-19T08:48:04.149Z,99329.19
2022-10-19T08:49:08.463Z,99328.53
2022-10-19T08:50:20.285Z,99327.13
2022-10-19T08:51:22.101Z,99334.66
2022-10-19T08:52:35.243Z,99326.19
2022-10-19T08:53:42.586Z,99328.25
2022-10-19T08:54:49.771Z,99333.09
2022-10-19T08:55:53.881Z,99328.84
2022-10-19T08:57:27.745Z,99329.03
2022-10-19T08:58:53.803Z,99334.50
2022-10-19T08:59:59.956Z,99327.13
2022-10-19T09:01:04.255Z,99331.06
2022-10-19T09:02:08.429Z,99324.78
2022-10-19T09:03:15.600Z,99324.94
2022-10-19T09:04:18.844Z,99324.44
2022-10-19T09:05:20.148Z,99325.09
2022-10-19T09:06:28.605Z,99331.56
2022-10-19T09:07:32.851Z,99330.78
2022-10-19T09:08:37.613Z,99324.63
2022-10-19T09:09:42.055Z,99332.81
2022-10-19T09:10:44.191Z,99326.03
2022-10-19T09:11:49.633Z,99322.09
2022-10-19T09:12:58.843Z,99323.06
2022-10-19T09:14:15.302Z,99324.94
2022-10-19T09:15:21.889Z,99315.34
2022-10-19T09:16:24.397Z,99321.16
2022-10-19T09:17:25.836Z,99319.44
2022-10-19T09:18:28.361Z,99312.19
2022-10-19T09:19:30.245Z,99323.50
2022-10-19T09:20:34.898Z,99308.13
2022-10-19T09:21:56.463Z,99314.72
2022-10-19T09:23:18.117Z,99316.75
2022-10-19T09:24:31.842Z,99313.75
2022-10-19T09:25:34.875Z,99312.97
2022-10-19T09:26:45.459Z,99307.63
2022-10-19T09:27:52.866Z,99308.25
2022-10-19T09:28:57.126Z,99304.78
2022-10-19T09:30:01.179Z,99314.88
2022-10-19T09:31:03.001Z,99307.47
2022-10-19T09:32:09.864Z,99299.44
2022-10-19T09:33:15.560Z,99304.19
2022-10-19T09:34:22.881Z,99308.88
2022-10-19T09:35:32.433Z,99306.19
2022-10-19T09:36:50.001Z,99308.84
2022-10-19T09:37:52.477Z,99300.19
2022-10-19T09:38:53.789Z,99305.88
2022-10-19T09:39:56.073Z,99310.25
2022-10-19T09:40:58.117Z,99303.47
2022-10-19T09:42:13.490Z,99302.22
2022-10-19T09:43:15.319Z,99304.75
2022-10-19T09:44:17.077Z,99301.25
2022-10-19T09:45:40.630Z,99305.81
2022-10-19T09:46:47.035Z,99297.00
2022-10-19T09:47:48.652Z,99298.88
2022-10-19T09:48:51.599Z,99304.25
2022-10-19T09:50:05.025Z,99297.00
2022-10-19T09:51:14.236Z,99297.16
2022-10-19T09:52:33.670Z,99294.47
2022-10-19T09:53:35.046Z,99290.22
2022-10-19T09:54:37.777Z,99294.81
2022-10-19T09:55:42.444Z,99298.72
2022-10-19T09:56:52.529Z,99300.13
2022-10-19T09:58:19.927Z,99299.94
2022-10-19T09:59:22.733Z,99300.72
2022-10-19T10:00:30.852Z,99303.53
2022-10-19T10:01:41.504Z,99302.75
2022-10-19T10:02:48.948Z,99301.97
2022-10-19T10:03:53.804Z,99301.97
2022-10-19T10:05:03.622Z,99302.28
2022-10-19T10:06:13.935Z,99301.97
2022-10-19T10:07:16.549Z,99296.44
2022-10-19T10:08:19.728Z,99292.16
2022-10-19T10:09:25.474Z,99298.91
2022-10-19T10:10:38.782Z,99293.53
2022-10-19T10:11:40.346Z,99287.56
2022-10-19T10:12:42.685Z,99297.94
2022-10-19T10:13:48.225Z,99293.16
2022-10-19T10:14:49.937Z,99291.09
2022-10-19T10:15:55.896Z,99295.81
2022-10-19T10:17:01.145Z,99295.75
2022-10-19T10:18:02.898Z,99293.19
2022-10-19T10:19:06.531Z,99295.38
2022-10-19T10:20:18.143Z,99297.72
2022-10-19T10:21:29.706Z,99295.19
2022-10-19T10:22:35.580Z,99297.09
2022-10-19T10:23:37.082Z,99292.84
2022-10-19T10:24:50.874Z,99300.03
2022-10-19T10:25:55.462Z,99290.69
2022-10-19T10:26:58.622Z,99285.19
2022-10-19T10:27:59.911Z,99289.53
2022-10-19T10:29:01.671Z,99286.06
2022-10-19T10:30:09.593Z,99284.78
2022-10-19T10:31:10.970Z,99283.13
2022-10-19T10:32:13.497Z,99284.03
2022-10-19T10:33:27.074Z,99283.69
2022-10-19T10:34:51.004Z,99283.00
2022-10-19T10:36:01.406Z,99279.03
2022-10-19T10:37:07.137Z,99282.00
2022-10-19T10:38:19.817Z,99279.94
2022-10-19T10:39:21.363Z,99287.78
2022-10-19T10:40:30.220Z,99282.41
2022-10-19T10:41:37.238Z,99280.19
2022-10-19T10:42:43.024Z,99274.81
2022-10-19T10:44:00.838Z,99274.25
2022-10-19T10:45:15.862Z,99272.72
2022-10-19T10:46:23.321Z,99264.00
2022-10-19T10:47:25.809Z,99265.44
2022-10-19T10:48:28.306Z,99261.31
2022-10-19T10:49:33.094Z,99257.66
2022-10-19T10:50:36.353Z,99255.63
2022-10-19T10:51:39.016Z,99258.72
2022-10-19T10:52:40.564Z,99261.47
2022-10-19T10:53:43.363Z,99263.72
2022-10-19T10:55:07.653Z,99257.09
2022-10-19T10:56:25.235Z,99251.66
2022-10-19T10:57:29.496Z,99250.88
2022-10-19T10:58:35.741Z,99255.66
2022-10-19T10:59:45.655Z,99256.53
2022-10-19T11:00:48.994Z,99253.84
2022-10-19T11:02:01.912Z,99251.50
2022-10-19T11:03:22.118Z,99255.72
2022-10-19T11:04:25.942Z,99253.63
2022-10-19T11:05:38.693Z,99252.19
2022-10-19T11:06:44.606Z,99248.13
2022-10-19T11:07:48.338Z,99251.03
2022-10-19T11:08:52.377Z,99249.78
2022-10-19T11:09:58.449Z,99246.97
2022-10-19T11:11:08.880Z,99249.22
2022-10-19T11:12:12.424Z,99247.31
2022-10-19T11:13:16.602Z,99253.00
2022-10-19T11:14:23.867Z,99245.56
2022-10-19T11:15:33.393Z,99242.97
2022-10-19T11:16:38.623Z,99242.53
2022-10-19T11:17:45.422Z,99236.41
2022-10-19T11:18:52.987Z,99241.06
2022-10-19T11:19:54.290Z,99235.97
2022-10-19T11:21:07.005Z,99234.09
2022-10-19T11:22:26.290Z,99230.06
2022-10-19T11:23:31.353Z,99230.22
2022-10-19T11:24:38.760Z,99234.03
2022-10-19T11:25:44.981Z,99231.03
2022-10-19T11:27:04.589Z,99219.63
2022-10-19T11:28:24.780Z,99216.88
2022-10-19T11:29:44.800Z,99222.72
2022-10-19T11:31:06.503Z,99216.13
2022-10-19T11:32:31.672Z,99213.34
2022-10-19T11:33:33.431Z,99209.75
2022-10-19T11:34:45.289Z,99208.66
2022-10-19T11:35:46.571Z,99210.78
2022-10-19T11:36:59.167Z,99207.91
2022-10-19T11:38:21.288Z,99209.16
2022-10-19T11:39:43.241Z,99202.84
2022-10-19T11:41:17.390Z,99199.28
2022-10-19T11:42:38.503Z,99201.28
2022-10-19T11:43:58.828Z,99195.56
2022-10-19T11:45:26.369Z,99191.69
2022-10-19T11:46:46.306Z,99188.31
2022-10-19T11:47:56.496Z,99187.75
2022-10-19T11:49:06.373Z,99182.69
2022-10-19T11:50:10.541Z,99178.22
2022-10-19T11:51:25.934Z,99183.25
2022-10-19T11:52:33.743Z,99178.66
2022-10-19T11:53:48.679Z,99174.75
2022-10-19T11:55:03.004Z,99176.75
2022-10-19T11:56:10.717Z,99167.38
2022-10-19T11:57:23.851Z,99171.97
2022-10-19T11:58:33.701Z,99168.25
2022-10-19T11:59:44.158Z,99161.66
2022-10-19T12:00:49.946Z,99157.94
2022-10-19T12:02:02.097Z,99161.31
2022-10-19T12:03:29.755Z,99158.75
2022-10-19T12:04:56.871Z,99154.53
2022-10-19T12:06:16.751Z,99153.03
2022-10-19T12:07:36.430Z,99157.41
2022-10-19T12:08:37.759Z,99152.81
2022-10-19T12:09:45.694Z,99154.47
2022-10-19T12:10:52.881Z,99143.97
2022-10-19T12:12:03.316Z,99147.75
2022-10-19T12:13:07.967Z,99148.34
2022-10-19T12:14:13.460Z,99152.03
2022-10-19T12:15:33.027Z,99148.34
2022-10-19T12:16:37.405Z,99151.31
2022-10-19T12:17:41.186Z,99147.66
2022-10-19T12:18:45.738Z,99149.47
2022-10-19T12:19:50.029Z,99148.91
2022-10-19T12:20:52.495Z,99143.97
2022-10-19T12:21:55.073Z,99147.00
2022-10-19T12:22:57.883Z,99140.50
2022-10-19T12:24:02.068Z,99152.03
2022-10-19T12:25:03.925Z,99145.88
2022-10-19T12:26:07.623Z,99140.16
2022-10-19T12:27:16.318Z,99144.50
2022-10-19T12:28:22.526Z,99141.16
2022-10-19T12:29:26.941Z,99134.22
2022-10-19T12:30:28.382Z,99142.19
2022-10-19T12:31:30.365Z,99134.91
2022-10-19T12:32:37.395Z,99141.75
2022-10-19T12:33:45.919Z,99137.16
2022-10-19T12:35:01.049Z,99136.81
2022-10-19T12:36:08.784Z,99133.09
2022-10-19T12:37:19.291Z,99129.63
2022-10-19T12:38:24.742Z,99134.31
2022-10-19T12:39:40.932Z,99129.41
2022-10-19T12:40:48.106Z,99120.03
2022-10-19T12:41:55.478Z,99121.03
2022-10-19T12:42:56.801Z,99119.56